createdAt,value
2023-04-12T00:02:44.871Z,0.20
2023-04-12T00:05:48.489Z,0.50
2023-04-12T00:08:51.626Z,0.52
2023-04-12T00:11:54.112Z,0.30
2023-04-12T00:14:56.522Z,0.00
2023-04-12T00:17:59.027Z,0.00
2023-04-12T00:21:02.138Z,0.00
2023-04-12T00:24:04.987Z,0.00
2023-04-12T00:27:08.307Z,0.00
2023-04-12T00:30:12.243Z,0.08
2023-04-12T00:33:14.694Z,0.10
2023-04-12T00:36:17.296Z,0.10
2023-04-12T00:39:19.825Z,0.00
2023-04-12T00:42:22.986Z,0.10
2023-04-12T00:45:25.378Z,0.00
2023-04-12T00:48:28.955Z,0.00
2023-04-12T00:51:33.229Z,0.20
2023-04-12T00:54:36.465Z,0.00
2023-04-12T00:57:40.110Z,0.30
2023-04-12T01:00:50.131Z,0.00
2023-04-12T01:03:54.376Z,0.10
2023-04-12T01:07:45.002Z,0.00
2023-04-12T01:11:14.133Z,0.00
2023-04-12T01:14:36.879Z,0.00
2023-04-12T01:17:47.804Z,0.00
2023-04-12T01:21:03.820Z,0.00
2023-04-12T01:24:32.398Z,0.00
2023-04-12T01:27:43.414Z,0.00
2023-04-12T01:30:48.006Z,0.10
2023-04-12T01:33:53.291Z,0.10
2023-04-12T01:36:58.402Z,0.10
2023-04-12T01:40:01.611Z,0.10
2023-04-12T01:43:16.329Z,0.10
2023-04-12T01:46:22.648Z,0.07
2023-04-12T01:49:33.672Z,0.10
2023-04-12T01:52:41.174Z,0.00
2023-04-12T01:55:48.609Z,0.10
2023-04-12T01:58:53.546Z,0.15
2023-04-12T02:01:56.896Z,0.10
2023-04-12T02:05:00.547Z,0.10
2023-04-12T02:08:04.143Z,0.32
2023-04-12T02:11:11.230Z,0.10
2023-04-12T02:14:13.712Z,0.00
2023-04-12T02:17:16.128Z,0.00
2023-04-12T02:20:19.787Z,0.10
2023-04-12T02:23:22.267Z,0.00
2023-04-12T02:26:24.691Z,0.30
2023-04-12T02:29:27.428Z,0.10
2023-04-12T02:32:30.968Z,0.10
2023-04-12T02:35:33.996Z,0.00
2023-04-12T02:38:42.740Z,0.00
2023-04-12T02:41:45.982Z,0.20
2023-04-12T02:44:49.257Z,0.20
2023-04-12T02:47:51.819Z,0.10
2023-04-12T02:50:58.921Z,0.15
2023-04-12T02:54:02.657Z,0.10
2023-04-12T02:57:16.281Z,0.20
2023-04-12T03:00:21.836Z,0.10
2023-04-12T03:03:32.195Z,0.38
2023-04-12T03:06:52.402Z,0.20
2023-04-12T03:09:58.233Z,0.15
2023-04-12T03:13:01.622Z,0.47
2023-04-12T03:16:22.983Z,0.13
2023-04-12T03:19:33.029Z,0.03
2023-04-12T03:22:36.763Z,0.40
2023-04-12T03:25:42.664Z,0.10
2023-04-12T03:29:14.263Z,0.10
2023-04-12T03:32:18.114Z,0.20
2023-04-12T03:35:25.975Z,0.30
2023-04-12T03:38:28.666Z,0.22
2023-04-12T03:41:31.593Z,0.30
2023-04-12T03:44:37.626Z,0.30
2023-04-12T03:47:45.384Z,0.60
2023-04-12T03:50:48.745Z,0.40
2023-04-12T03:53:57.309Z,0.43
2023-04-12T03:57:00.230Z,0.63
2023-04-12T04:00:16.102Z,0.57
2023-04-12T04:03:35.195Z,0.15
2023-04-12T04:06:46.463Z,0.57
2023-04-12T04:09:50.097Z,0.40
2023-04-12T04:12:52.698Z,0.60
2023-04-12T04:16:06.057Z,0.40
2023-04-12T04:19:09.121Z,0.40
2023-04-12T04:22:13.930Z,0.60
2023-04-12T04:25:16.635Z,0.50
2023-04-12T04:28:25.380Z,0.63
2023-04-12T04:31:34.629Z,0.70
2023-04-12T04:34:38.779Z,0.57
2023-04-12T04:37:48.386Z,0.60
2023-04-12T04:40:54.033Z,0.63
2023-04-12T04:44:01.084Z,0.70
2023-04-12T04:47:06.878Z,0.77
2023-04-12T04:50:09.598Z,0.95
2023-04-12T04:53:14.096Z,0.60
2023-04-12T04:56:16.551Z,1.23
2023-04-12T04:59:20.978Z,0.73
2023-04-12T05:02:23.566Z,0.73
2023-04-12T05:05:26.175Z,0.50
2023-04-12T05:08:35.800Z,0.70
2023-04-12T05:11:39.113Z,1.00
2023-04-12T05:14:51.281Z,1.02
2023-04-12T05:17:54.409Z,0.80
2023-04-12T05:21:02.663Z,1.02
2023-04-12T05:24:05.915Z,0.67
2023-04-12T05:27:10.669Z,0.90
2023-04-12T05:30:13.401Z,1.38
2023-04-12T05:33:16.069Z,1.60
2023-04-12T05:36:22.567Z,1.00
2023-04-12T05:39:27.297Z,1.27
2023-04-12T05:42:30.280Z,1.63
2023-04-12T05:45:34.004Z,1.30
2023-04-12T05:48:37.464Z,1.05
2023-04-12T05:51:41.204Z,0.93
2023-04-12T05:54:48.151Z,0.73
2023-04-12T05:57:52.972Z,1.00
2023-04-12T06:00:57.052Z,1.40
2023-04-12T06:04:03.125Z,1.03
2023-04-12T06:07:05.845Z,1.05
2023-04-12T06:10:10.096Z,1.15
2023-04-12T06:13:12.772Z,1.00
2023-04-12T06:16:19.729Z,1.15
2023-04-12T06:19:22.164Z,1.10
2023-04-12T06:22:26.413Z,1.23
2023-04-12T06:25:28.884Z,0.80
2023-04-12T06:28:32.879Z,1.27
2023-04-12T06:31:35.465Z,0.88
2023-04-12T06:34:38.193Z,1.10
2023-04-12T06:37:47.160Z,1.40
2023-04-12T06:40:49.702Z,1.25
2023-04-12T06:43:52.105Z,1.27
2023-04-12T06:46:54.585Z,1.60
2023-04-12T06:49:58.212Z,1.60
2023-04-12T06:53:00.762Z,1.27
2023-04-12T06:56:06.364Z,2.03
2023-04-12T06:59:09.205Z,2.72
2023-04-12T07:02:12.113Z,2.10
2023-04-12T07:05:14.683Z,1.70
2023-04-12T07:08:17.179Z,1.70
2023-04-12T07:11:22.556Z,1.58
2023-04-12T07:14:25.674Z,2.33
2023-04-12T07:17:28.083Z,1.60
2023-04-12T07:20:30.529Z,1.75
2023-04-12T07:23:33.329Z,1.98
2023-04-12T07:26:36.124Z,1.57
2023-04-12T07:29:38.554Z,1.65
2023-04-12T07:32:41.160Z,1.90
2023-04-12T07:35:43.653Z,2.17
2023-04-12T07:38:46.200Z,1.77
2023-04-12T07:41:49.713Z,1.88
2023-04-12T07:44:52.417Z,2.40
2023-04-12T07:47:54.888Z,2.35
2023-04-12T07:50:57.432Z,2.30
2023-04-12T07:54:00.053Z,2.10
2023-04-12T07:57:03.813Z,1.87
2023-04-12T08:00:07.590Z,2.88
2023-04-12T08:03:17.093Z,3.28
2023-04-12T08:06:19.712Z,2.20
2023-04-12T08:09:22.282Z,2.30
2023-04-12T08:12:25.122Z,2.97
2023-04-12T08:15:27.651Z,2.70
2023-04-12T08:18:30.124Z,1.95
2023-04-12T08:21:33.710Z,2.50
2023-04-12T08:24:36.146Z,2.20
2023-04-12T08:27:50.014Z,2.30
2023-04-12T08:30:52.577Z,1.90
2023-04-12T08:33:56.535Z,1.85
2023-04-12T08:37:00.896Z,2.40
2023-04-12T08:40:09.774Z,1.80
2023-04-12T08:43:13.059Z,2.00
2023-04-12T08:46:16.944Z,2.10
2023-04-12T08:49:22.884Z,1.88
2023-04-12T08:52:25.481Z,2.17
2023-04-12T08:55:28.150Z,1.70
2023-04-12T08:58:31.342Z,1.87
2023-04-12T09:01:33.896Z,2.50
2023-04-12T09:04:48.599Z,1.88
2023-04-12T09:07:51.262Z,1.73
2023-04-12T09:10:53.700Z,2.03
2023-04-12T09:13:58.258Z,2.42
2023-04-12T09:17:01.705Z,2.40
2023-04-12T09:20:24.072Z,2.90
2023-04-12T09:23:26.846Z,2.65
2023-04-12T09:26:29.848Z,2.90
2023-04-12T09:29:33.291Z,3.20
2023-04-12T09:32:36.432Z,2.88
2023-04-12T09:35:39.241Z,3.00
2023-04-12T09:38:58.860Z,5.13
2023-04-12T09:42:18.169Z,4.00
2023-04-12T09:45:34.900Z,2.58
2023-04-12T09:48:39.556Z,2.90
2023-04-12T09:51:42.366Z,2.90
2023-04-12T09:54:46.921Z,4.07
2023-04-12T09:57:51.885Z,2.80
2023-04-12T10:00:57.131Z,4.17
2023-04-12T10:04:00.916Z,3.25
2023-04-12T10:07:03.991Z,3.22
2023-04-12T10:10:08.871Z,3.43
2023-04-12T10:13:12.860Z,4.00
2023-04-12T10:16:16.782Z,4.05
2023-04-12T10:19:19.542Z,4.13
2023-04-12T10:22:22.736Z,3.47
2023-04-12T10:25:27.028Z,3.28
2023-04-12T10:28:29.533Z,3.60
2023-04-12T10:31:35.025Z,3.73
2023-04-12T10:34:42.532Z,3.53
2023-04-12T10:38:11.114Z,3.60
2023-04-12T10:41:18.848Z,3.43
2023-04-12T10:44:26.364Z,3.90
2023-04-12T10:47:53.867Z,3.42
2023-04-12T10:51:33.314Z,3.42
2023-04-12T10:54:42.614Z,3.95
2023-04-12T10:57:49.408Z,3.85
2023-04-12T11:00:59.265Z,3.60
2023-04-12T11:04:31.392Z,3.80
2023-04-12T11:07:46.318Z,3.78
2023-04-12T11:11:23.823Z,3.75
2023-04-12T11:14:34.412Z,3.60
2023-04-12T11:17:37.921Z,4.00
2023-04-12T11:20:41.155Z,2.90
2023-04-12T11:23:43.856Z,3.58
2023-04-12T11:26:46.886Z,3.33
2023-04-12T11:29:55.747Z,3.42
2023-04-12T11:32:58.237Z,3.33
2023-04-12T11:36:04.961Z,3.40
2023-04-12T11:39:08.420Z,3.08
2023-04-12T11:42:16.248Z,3.25
2023-04-12T11:45:21.686Z,3.90
2023-04-12T11:48:25.092Z,2.90
2023-04-12T11:51:32.454Z,4.10
2023-04-12T11:54:35.429Z,3.28
2023-04-12T11:57:38.887Z,3.00
2023-04-12T12:00:46.005Z,3.97
2023-04-12T12:03:49.904Z,3.38
2023-04-12T12:06:53.267Z,3.50
2023-04-12T12:09:56.468Z,3.60
2023-04-12T12:12:59.704Z,3.13
2023-04-12T12:16:02.162Z,2.77
2023-04-12T12:19:05.189Z,2.72
2023-04-12T12:22:17.535Z,3.20
2023-04-12T12:25:20.320Z,3.90
2023-04-12T12:28:24.440Z,4.13
2023-04-12T12:31:28.438Z,5.30
2023-04-12T12:34:34.440Z,4.45
2023-04-12T12:37:36.902Z,2.90
2023-04-12T12:40:39.977Z,3.08
2023-04-12T12:43:49.529Z,3.25
2023-04-12T12:46:56.928Z,3.27
2023-04-12T12:50:03.387Z,3.50
2023-04-12T12:53:06.577Z,3.78
2023-04-12T12:56:13.699Z,4.50
2023-04-12T12:59:16.216Z,3.50
2023-04-12T13:02:19.853Z,3.67
2023-04-12T13:05:23.277Z,3.90
2023-04-12T13:08:26.728Z,3.57
2023-04-12T13:11:29.137Z,3.40
2023-04-12T13:14:31.673Z,3.70
2023-04-12T13:17:34.145Z,3.23
2023-04-12T13:20:36.552Z,3.15
2023-04-12T13:23:39.039Z,3.92
2023-04-12T13:26:41.478Z,4.07
2023-04-12T13:29:43.981Z,4.93
2023-04-12T13:32:46.800Z,2.90
2023-04-12T13:35:49.389Z,3.58
2023-04-12T13:38:52.047Z,3.13
2023-04-12T13:41:54.476Z,3.00
2023-04-12T13:44:57.224Z,3.10
2023-04-12T13:47:59.738Z,3.37
2023-04-12T13:51:02.996Z,2.80
2023-04-12T13:54:05.609Z,4.05
2023-04-12T13:57:08.159Z,3.25
2023-04-12T14:00:11.510Z,2.92
2023-04-12T14:03:14.571Z,3.22
2023-04-12T14:06:17.186Z,2.92
2023-04-12T14:09:30.725Z,2.97
2023-04-12T14:12:33.179Z,4.60
2023-04-12T14:15:35.628Z,3.97
2023-04-12T14:18:38.254Z,3.10
2023-04-12T14:21:41.097Z,3.10
2023-04-12T14:24:43.490Z,2.92
2023-04-12T14:27:45.997Z,3.33
2023-04-12T14:30:50.985Z,3.03
2023-04-12T14:33:53.914Z,2.70
2023-04-12T14:36:56.417Z,2.40
2023-04-12T14:39:58.961Z,2.50
2023-04-12T14:43:01.588Z,2.38
2023-04-12T14:46:04.158Z,2.65
2023-04-12T14:49:07.034Z,2.53
2023-04-12T14:52:09.585Z,2.55
2023-04-12T14:55:12.016Z,2.58
2023-04-12T14:58:14.543Z,2.58
2023-04-12T15:01:18.326Z,2.90
2023-04-12T15:04:21.076Z,2.85
2023-04-12T15:07:23.824Z,3.00
2023-04-12T15:10:26.359Z,2.93
2023-04-12T15:13:33.093Z,2.70
2023-04-12T15:16:38.194Z,2.70
2023-04-12T15:19:41.052Z,2.80
2023-04-12T15:22:43.869Z,3.22
2023-04-12T15:25:47.392Z,4.25
2023-04-12T15:28:49.926Z,2.88
2023-04-12T15:31:52.654Z,3.40
2023-04-12T15:34:56.212Z,3.53
2023-04-12T15:37:58.610Z,3.17
2023-04-12T15:41:01.890Z,4.47
2023-04-12T15:44:08.680Z,4.38
2023-04-12T15:47:12.219Z,4.55
2023-04-12T15:50:14.911Z,4.63
2023-04-12T15:53:20.475Z,4.05
2023-04-12T15:56:26.125Z,4.45
2023-04-12T15:59:30.030Z,4.13
2023-04-12T16:02:33.701Z,3.78
2023-04-12T16:05:36.480Z,3.67
2023-04-12T16:08:38.891Z,3.65
2023-04-12T16:11:41.305Z,3.40
2023-04-12T16:14:44.140Z,3.22
2023-04-12T16:17:48.176Z,3.17
2023-04-12T16:20:52.087Z,3.57
2023-04-12T16:23:54.564Z,3.88
2023-04-12T16:26:57.916Z,3.40
2023-04-12T16:30:02.907Z,5.53
2023-04-12T16:33:05.735Z,6.40
2023-04-12T16:36:09.411Z,5.57
2023-04-12T16:39:11.755Z,5.47
2023-04-12T16:42:15.678Z,5.90
2023-04-12T16:45:18.134Z,8.70
2023-04-12T16:48:22.827Z,9.43
2023-04-12T16:51:26.213Z,9.03
2023-04-12T16:54:28.712Z,5.43
2023-04-12T16:57:32.829Z,5.25
2023-04-12T17:00:36.063Z,5.20
2023-04-12T17:03:38.935Z,4.68
2023-04-12T17:06:42.952Z,5.15
2023-04-12T17:09:45.839Z,5.47
2023-04-12T17:12:58.431Z,6.73
2023-04-12T17:16:00.992Z,12.15
2023-04-12T17:19:03.895Z,13.15
2023-04-12T17:22:06.783Z,9.80
2023-04-12T17:25:12.483Z,7.70
2023-04-12T17:28:15.359Z,6.38
2023-04-12T17:31:20.927Z,5.22
2023-04-12T17:34:24.197Z,6.07
2023-04-12T17:37:30.047Z,8.43
2023-04-12T17:40:33.269Z,6.57
2023-04-12T17:43:35.832Z,9.63
2023-04-12T17:46:38.427Z,10.23
2023-04-12T17:49:41.945Z,8.88
2023-04-12T17:52:44.588Z,7.87
2023-04-12T17:55:48.900Z,7.97
2023-04-12T17:58:54.781Z,9.50
2023-04-12T18:01:58.116Z,9.93
2023-04-12T18:05:00.851Z,9.55
2023-04-12T18:08:03.512Z,10.48
2023-04-12T18:11:08.004Z,9.88
2023-04-12T18:14:11.916Z,9.93
2023-04-12T18:17:14.421Z,10.88
2023-04-12T18:20:17.426Z,9.57
2023-04-12T18:23:20.253Z,9.03
2023-04-12T18:26:23.219Z,7.38
2023-04-12T18:29:26.406Z,7.95
2023-04-12T18:32:29.771Z,7.60
2023-04-12T18:35:32.710Z,6.82
2023-04-12T18:38:36.173Z,8.82
2023-04-12T18:41:40.914Z,6.57
2023-04-12T18:44:44.715Z,6.50
2023-04-12T18:47:47.413Z,5.15
2023-04-12T18:50:50.138Z,6.82
2023-04-12T18:53:52.967Z,6.13
2023-04-12T18:56:57.901Z,5.70
2023-04-12T19:00:00.732Z,6.85
2023-04-12T19:03:03.733Z,7.63
2023-04-12T19:06:06.605Z,11.75
2023-04-12T19:09:09.137Z,7.50
2023-04-12T19:12:12.025Z,7.40
2023-04-12T19:15:14.695Z,6.67
2023-04-12T19:18:17.670Z,7.00
2023-04-12T19:21:20.707Z,5.47
2023-04-12T19:24:23.573Z,4.70
2023-04-12T19:27:27.142Z,7.63
2023-04-12T19:30:31.894Z,8.13
2023-04-12T19:33:35.292Z,7.25
2023-04-12T19:36:38.076Z,8.05
2023-04-12T19:39:41.211Z,8.18
2023-04-12T19:42:44.174Z,7.90
2023-04-12T19:45:47.353Z,6.67
2023-04-12T19:48:51.450Z,8.68
2023-04-12T19:51:54.454Z,9.43
2023-04-12T19:54:58.323Z,8.93
2023-04-12T19:58:01.890Z,8.63
2023-04-12T20:01:05.127Z,7.13
2023-04-12T20:04:09.665Z,6.70
2023-04-12T20:07:12.674Z,6.95
2023-04-12T20:10:15.742Z,10.10
2023-04-12T20:13:18.463Z,7.10
2023-04-12T20:16:20.876Z,8.17
2023-04-12T20:19:23.563Z,7.93
2023-04-12T20:22:26.309Z,8.15
2023-04-12T20:25:29.039Z,7.63
2023-04-12T20:28:31.750Z,7.97
2023-04-12T20:31:34.644Z,7.03
2023-04-12T20:34:37.333Z,7.22
2023-04-12T20:37:40.565Z,7.03
2023-04-12T20:40:43.296Z,6.25
2023-04-12T20:43:47.913Z,7.35
2023-04-12T20:46:51.010Z,6.30
2023-04-12T20:49:56.160Z,7.13
2023-04-12T20:52:59.217Z,6.22
2023-04-12T20:56:02.477Z,6.53
2023-04-12T20:59:04.948Z,6.75
2023-04-12T21:02:09.433Z,6.28
2023-04-12T21:05:16.998Z,7.65
2023-04-12T21:08:19.820Z,10.30
2023-04-12T21:11:22.248Z,8.00
2023-04-12T21:14:24.861Z,7.63
2023-04-12T21:17:27.392Z,7.50
2023-04-12T21:20:30.469Z,6.60
2023-04-12T21:23:33.250Z,7.97
2023-04-12T21:26:36.005Z,8.27
2023-04-12T21:29:41.528Z,7.88
2023-04-12T21:32:44.497Z,6.47
2023-04-12T21:35:47.157Z,7.95
2023-04-12T21:38:49.632Z,7.65
2023-04-12T21:41:52.122Z,7.10
2023-04-12T21:44:54.553Z,6.93
2023-04-12T21:47:56.932Z,5.90
2023-04-12T21:50:59.516Z,6.07
2023-04-12T21:54:01.942Z,5.30
2023-04-12T21:57:04.673Z,6.27
2023-04-12T22:00:10.010Z,5.38
2023-04-12T22:03:15.759Z,5.28
2023-04-12T22:06:20.241Z,4.88
2023-04-12T22:09:22.626Z,5.13
2023-04-12T22:12:25.679Z,5.47
2023-04-12T22:15:29.866Z,5.90
2023-04-12T22:18:32.232Z,15.57
2023-04-12T22:21:35.152Z,18.25
2023-04-12T22:24:38.799Z,16.80
2023-04-12T22:27:42.384Z,13.03
2023-04-12T22:30:46.902Z,11.15
2023-04-12T22:33:49.426Z,9.93
2023-04-12T22:36:52.102Z,13.50
2023-04-12T22:39:55.092Z,13.60
2023-04-12T22:42:58.102Z,14.18
2023-04-12T22:46:05.054Z,12.98
2023-04-12T22:49:07.785Z,13.23
2023-04-12T22:52:10.226Z,11.90
2023-04-12T22:55:14.335Z,8.70
2023-04-12T22:58:17.170Z,9.50
2023-04-12T23:01:21.535Z,9.63
2023-04-12T23:04:24.079Z,11.57
2023-04-12T23:07:29.878Z,9.88
2023-04-12T23:10:33.723Z,10.68
2023-04-12T23:13:36.822Z,9.13
2023-04-12T23:16:44.520Z,9.13
2023-04-12T23:19:46.959Z,7.37
2023-04-12T23:22:57.819Z,7.68
2023-04-12T23:26:00.970Z,9.45
2023-04-12T23:29:04.206Z,8.63
2023-04-12T23:32:06.556Z,8.48
2023-04-12T23:35:09.260Z,7.03
2023-04-12T23:38:15.747Z,7.38
2023-04-12T23:41:18.488Z,8.10
2023-04-12T23:44:20.892Z,7.28
2023-04-12T23:47:23.340Z,6.75
2023-04-12T23:50:26.209Z,7.13
2023-04-12T23:53:28.757Z,7.68
2023-04-12T23:56:31.700Z,6.40
2023-04-12T23:59:34.133Z,7.37
